sensor_id;sensor_type;location;lat;lon;timestamp;P1;durP1;ratioP1;P2;durP2;ratioP2
7517;SDS011;3800;48.922;9.444;2023-03-03T00:00:43;35.77;;;24.77;;
7517;SDS011;3800;48.922;9.444;2023-03-03T00:03:11;36.80;;;26.03;;
7517;SDS011;3800;48.922;9.444;2023-03-03T00:05:38;36.73;;;25.13;;
7517;SDS011;3800;48.922;9.444;2023-03-03T00:08:06;36.43;;;24.77;;
7517;SDS011;3800;48.922;9.444;2023-03-03T00:10:33;37.63;;;24.50;;
7517;SDS011;3800;48.922;9.444;2023-03-03T00:13:01;39.70;;;25.43;;
7517;SDS011;3800;48.922;9.444;2023-03-03T00:15:29;34.10;;;24.23;;
7517;SDS011;3800;48.922;9.444;2023-03-03T00:17:57;35.20;;;24.50;;
7517;SDS011;3800;48.922;9.444;2023-03-03T00:20:28;36.07;;;25.47;;
7517;SDS011;3800;48.922;9.444;2023-03-03T00:22:53;36.87;;;24.70;;
7517;SDS011;3800;48.922;9.444;2023-03-03T00:25:24;35.97;;;23.60;;
7517;SDS011;3800;48.922;9.444;2023-03-03T00:27:51;33.73;;;23.20;;
7517;SDS011;3800;48.922;9.444;2023-03-03T00:30:19;32.47;;;23.03;;
7517;SDS011;3800;48.922;9.444;2023-03-03T00:32:46;33.07;;;23.13;;
7517;SDS011;3800;48.922;9.444;2023-03-03T00:38:01;36.37;;;23.50;;
7517;SDS011;3800;48.922;9.444;2023-03-03T00:40:34;36.67;;;23.73;;
7517;SDS011;3800;48.922;9.444;2023-03-03T00:42:59;33.23;;;23.83;;
7517;SDS011;3800;48.922;9.444;2023-03-03T00:45:32;34.70;;;23.60;;
7517;SDS011;3800;48.922;9.444;2023-03-03T00:48:07;32.37;;;22.70;;
7517;SDS011;3800;48.922;9.444;2023-03-03T00:50:29;33.73;;;24.03;;
7517;SDS011;3800;48.922;9.444;2023-03-03T00:53:01;33.53;;;23.07;;
7517;SDS011;3800;48.922;9.444;2023-03-03T00:55:30;29.93;;;21.73;;
7517;SDS011;3800;48.922;9.444;2023-03-03T00:57:58;30.83;;;21.83;;
7517;SDS011;3800;48.922;9.444;2023-03-03T01:00:25;29.27;;;21.33;;
7517;SDS011;3800;48.922;9.444;2023-03-03T01:02:53;32.43;;;22.20;;
7517;SDS011;3800;48.922;9.444;2023-03-03T01:05:20;31.37;;;22.27;;
7517;SDS011;3800;48.922;9.444;2023-03-03T01:07:48;31.23;;;21.87;;
7517;SDS011;3800;48.922;9.444;2023-03-03T01:10:16;32.57;;;22.33;;
7517;SDS011;3800;48.922;9.444;2023-03-03T01:12:43;32.43;;;22.37;;
7517;SDS011;3800;48.922;9.444;2023-03-03T01:15:11;31.33;;;22.10;;
7517;SDS011;3800;48.922;9.444;2023-03-03T01:17:39;29.90;;;21.67;;
7517;SDS011;3800;48.922;9.444;2023-03-03T01:20:07;30.53;;;21.97;;
7517;SDS011;3800;48.922;9.444;2023-03-03T01:22:35;33.10;;;22.27;;
7517;SDS011;3800;48.922;9.444;2023-03-03T01:25:02;34.00;;;22.33;;
7517;SDS011;3800;48.922;9.444;2023-03-03T01:27:30;29.50;;;21.63;;
7517;SDS011;3800;48.922;9.444;2023-03-03T01:29:58;30.20;;;21.47;;
7517;SDS011;3800;48.922;9.444;2023-03-03T01:32:26;33.97;;;22.17;;
7517;SDS011;3800;48.922;9.444;2023-03-03T01:34:54;29.07;;;21.43;;
7517;SDS011;3800;48.922;9.444;2023-03-03T01:37:21;31.33;;;21.93;;
7517;SDS011;3800;48.922;9.444;2023-03-03T01:39:49;29.67;;;22.20;;
7517;SDS011;3800;48.922;9.444;2023-03-03T01:42:17;33.13;;;21.43;;
7517;SDS011;3800;48.922;9.444;2023-03-03T01:44:44;33.40;;;22.57;;
7517;SDS011;3800;48.922;9.444;2023-03-03T01:47:14;31.33;;;22.63;;
7517;SDS011;3800;48.922;9.444;2023-03-03T01:49:48;31.33;;;22.70;;
7517;SDS011;3800;48.922;9.444;2023-03-03T01:52:20;36.03;;;23.30;;
7517;SDS011;3800;48.922;9.444;2023-03-03T01:54:49;33.13;;;23.63;;
7517;SDS011;3800;48.922;9.444;2023-03-03T01:57:17;32.70;;;23.20;;
7517;SDS011;3800;48.922;9.444;2023-03-03T01:59:44;36.93;;;24.87;;
7517;SDS011;3800;48.922;9.444;2023-03-03T02:02:10;37.07;;;24.43;;
7517;SDS011;3800;48.922;9.444;2023-03-03T02:04:38;38.63;;;24.93;;
7517;SDS011;3800;48.922;9.444;2023-03-03T02:07:06;38.83;;;23.80;;
7517;SDS011;3800;48.922;9.444;2023-03-03T02:09:51;37.33;;;24.03;;
7517;SDS011;3800;48.922;9.444;2023-03-03T02:12:17;36.03;;;24.80;;
7517;SDS011;3800;48.922;9.444;2023-03-03T02:14:44;39.97;;;24.17;;
7517;SDS011;3800;48.922;9.444;2023-03-03T02:17:12;38.33;;;25.47;;
7517;SDS011;3800;48.922;9.444;2023-03-03T02:19:46;34.47;;;23.93;;
7517;SDS011;3800;48.922;9.444;2023-03-03T02:22:13;34.43;;;24.03;;
7517;SDS011;3800;48.922;9.444;2023-03-03T02:24:42;37.20;;;24.73;;
7517;SDS011;3800;48.922;9.444;2023-03-03T02:27:10;36.70;;;24.77;;
7517;SDS011;3800;48.922;9.444;2023-03-03T02:29:38;36.13;;;23.03;;
7517;SDS011;3800;48.922;9.444;2023-03-03T02:32:06;30.83;;;22.30;;
7517;SDS011;3800;48.922;9.444;2023-03-03T02:34:51;38.43;;;25.27;;
7517;SDS011;3800;48.922;9.444;2023-03-03T02:37:19;36.77;;;24.27;;
7517;SDS011;3800;48.922;9.444;2023-03-03T02:39:46;40.70;;;24.60;;
7517;SDS011;3800;48.922;9.444;2023-03-03T02:42:17;36.90;;;23.90;;
7517;SDS011;3800;48.922;9.444;2023-03-03T02:44:46;35.70;;;24.50;;
7517;SDS011;3800;48.922;9.444;2023-03-03T02:47:13;37.10;;;24.47;;
7517;SDS011;3800;48.922;9.444;2023-03-03T02:49:41;39.10;;;25.80;;
7517;SDS011;3800;48.922;9.444;2023-03-03T02:52:09;36.53;;;25.20;;
7517;SDS011;3800;48.922;9.444;2023-03-03T02:54:36;37.37;;;23.00;;
7517;SDS011;3800;48.922;9.444;2023-03-03T02:57:05;34.80;;;23.33;;
7517;SDS011;3800;48.922;9.444;2023-03-03T02:59:32;33.83;;;23.20;;
7517;SDS011;3800;48.922;9.444;2023-03-03T03:01:59;34.30;;;22.60;;
7517;SDS011;3800;48.922;9.444;2023-03-03T03:04:27;35.77;;;23.33;;
7517;SDS011;3800;48.922;9.444;2023-03-03T03:06:55;34.53;;;22.23;;
7517;SDS011;3800;48.922;9.444;2023-03-03T03:09:23;29.53;;;21.07;;
7517;SDS011;3800;48.922;9.444;2023-03-03T03:11:51;33.07;;;22.27;;
7517;SDS011;3800;48.922;9.444;2023-03-03T03:14:18;35.67;;;22.50;;
7517;SDS011;3800;48.922;9.444;2023-03-03T03:16:46;33.33;;;22.30;;
7517;SDS011;3800;48.922;9.444;2023-03-03T03:19:14;34.27;;;23.80;;
7517;SDS011;3800;48.922;9.444;2023-03-03T03:21:41;36.80;;;23.80;;
7517;SDS011;3800;48.922;9.444;2023-03-03T03:24:09;34.63;;;23.80;;
7517;SDS011;3800;48.922;9.444;2023-03-03T03:26:37;37.40;;;24.40;;
7517;SDS011;3800;48.922;9.444;2023-03-03T03:29:05;34.23;;;23.67;;
7517;SDS011;3800;48.922;9.444;2023-03-03T03:31:33;39.17;;;24.57;;
7517;SDS011;3800;48.922;9.444;2023-03-03T03:34:01;36.20;;;24.80;;
7517;SDS011;3800;48.922;9.444;2023-03-03T03:36:30;36.77;;;25.07;;
7517;SDS011;3800;48.922;9.444;2023-03-03T03:38:57;39.70;;;25.60;;
7517;SDS011;3800;48.922;9.444;2023-03-03T03:41:26;38.20;;;25.73;;
7517;SDS011;3800;48.922;9.444;2023-03-03T03:43:53;39.53;;;26.23;;
7517;SDS011;3800;48.922;9.444;2023-03-03T03:46:22;36.93;;;25.20;;
7517;SDS011;3800;48.922;9.444;2023-03-03T03:48:49;35.03;;;24.33;;
7517;SDS011;3800;48.922;9.444;2023-03-03T03:51:17;34.13;;;24.33;;
7517;SDS011;3800;48.922;9.444;2023-03-03T03:53:45;31.60;;;22.37;;
7517;SDS011;3800;48.922;9.444;2023-03-03T03:56:12;39.27;;;25.70;;
7517;SDS011;3800;48.922;9.444;2023-03-03T03:58:40;37.57;;;24.60;;
7517;SDS011;3800;48.922;9.444;2023-03-03T04:01:07;38.13;;;26.03;;
7517;SDS011;3800;48.922;9.444;2023-03-03T04:03:35;35.70;;;24.40;;
7517;SDS011;3800;48.922;9.444;2023-03-03T04:06:03;38.10;;;25.37;;
7517;SDS011;3800;48.922;9.444;2023-03-03T04:08:30;39.13;;;27.00;;
7517;SDS011;3800;48.922;9.444;2023-03-03T04:10:58;37.77;;;26.93;;
7517;SDS011;3800;48.922;9.444;2023-03-03T04:13:26;41.90;;;25.67;;
7517;SDS011;3800;48.922;9.444;2023-03-03T04:15:53;40.17;;;26.13;;
7517;SDS011;3800;48.922;9.444;2023-03-03T04:18:21;37.63;;;26.27;;
7517;SDS011;3800;48.922;9.444;2023-03-03T04:20:49;44.63;;;28.37;;
7517;SDS011;3800;48.922;9.444;2023-03-03T04:23:17;40.00;;;26.37;;
7517;SDS011;3800;48.922;9.444;2023-03-03T04:25:45;41.47;;;28.77;;
7517;SDS011;3800;48.922;9.444;2023-03-03T04:28:13;48.40;;;28.93;;
7517;SDS011;3800;48.922;9.444;2023-03-03T04:30:40;44.67;;;28.63;;
7517;SDS011;3800;48.922;9.444;2023-03-03T04:33:08;44.77;;;28.87;;
7517;SDS011;3800;48.922;9.444;2023-03-03T04:35:36;41.63;;;27.10;;
7517;SDS011;3800;48.922;9.444;2023-03-03T04:38:04;47.87;;;29.07;;
7517;SDS011;3800;48.922;9.444;2023-03-03T04:40:31;47.13;;;27.77;;
7517;SDS011;3800;48.922;9.444;2023-03-03T04:42:59;46.30;;;28.70;;
7517;SDS011;3800;48.922;9.444;2023-03-03T04:45:27;38.93;;;27.57;;
7517;SDS011;3800;48.922;9.444;2023-03-03T04:47:55;38.83;;;26.87;;
7517;SDS011;3800;48.922;9.444;2023-03-03T04:50:23;40.00;;;26.27;;
7517;SDS011;3800;48.922;9.444;2023-03-03T04:52:50;43.33;;;27.43;;
7517;SDS011;3800;48.922;9.444;2023-03-03T04:55:19;44.50;;;26.73;;
7517;SDS011;3800;48.922;9.444;2023-03-03T04:57:46;44.10;;;27.30;;
7517;SDS011;3800;48.922;9.444;2023-03-03T05:00:14;38.17;;;26.83;;
7517;SDS011;3800;48.922;9.444;2023-03-03T05:02:42;43.40;;;28.50;;
7517;SDS011;3800;48.922;9.444;2023-03-03T05:05:09;40.23;;;26.87;;
7517;SDS011;3800;48.922;9.444;2023-03-03T05:07:38;41.97;;;26.00;;
7517;SDS011;3800;48.922;9.444;2023-03-03T05:10:06;35.93;;;25.03;;
7517;SDS011;3800;48.922;9.444;2023-03-03T05:12:33;35.63;;;24.67;;
7517;SDS011;3800;48.922;9.444;2023-03-03T05:15:01;40.73;;;26.37;;
7517;SDS011;3800;48.922;9.444;2023-03-03T05:17:29;36.93;;;25.90;;
7517;SDS011;3800;48.922;9.444;2023-03-03T05:19:56;39.77;;;27.77;;
7517;SDS011;3800;48.922;9.444;2023-03-03T05:22:24;46.70;;;29.53;;
7517;SDS011;3800;48.922;9.444;2023-03-03T05:24:52;41.80;;;27.67;;
7517;SDS011;3800;48.922;9.444;2023-03-03T05:27:19;43.33;;;28.13;;
7517;SDS011;3800;48.922;9.444;2023-03-03T05:29:48;39.23;;;26.70;;
7517;SDS011;3800;48.922;9.444;2023-03-03T05:32:15;42.40;;;27.00;;
7517;SDS011;3800;48.922;9.444;2023-03-03T05:34:43;39.47;;;26.20;;
7517;SDS011;3800;48.922;9.444;2023-03-03T05:37:10;38.83;;;26.73;;
7517;SDS011;3800;48.922;9.444;2023-03-03T05:39:39;37.20;;;25.70;;
7517;SDS011;3800;48.922;9.444;2023-03-03T05:42:07;40.57;;;25.47;;
7517;SDS011;3800;48.922;9.444;2023-03-03T05:44:36;42.03;;;26.13;;
7517;SDS011;3800;48.922;9.444;2023-03-03T05:47:04;38.47;;;24.30;;
7517;SDS011;3800;48.922;9.444;2023-03-03T05:49:34;35.47;;;22.13;;
7517;SDS011;3800;48.922;9.444;2023-03-03T05:52:03;37.50;;;24.77;;
7517;SDS011;3800;48.922;9.444;2023-03-03T05:54:31;40.17;;;23.43;;
7517;SDS011;3800;48.922;9.444;2023-03-03T05:56:58;31.63;;;22.40;;
7517;SDS011;3800;48.922;9.444;2023-03-03T05:59:27;29.90;;;20.83;;
7517;SDS011;3800;48.922;9.444;2023-03-03T06:01:57;34.60;;;23.13;;
7517;SDS011;3800;48.922;9.444;2023-03-03T06:04:24;36.83;;;23.30;;
7517;SDS011;3800;48.922;9.444;2023-03-03T06:06:52;31.83;;;22.03;;
7517;SDS011;3800;48.922;9.444;2023-03-03T06:09:20;37.37;;;23.57;;
7517;SDS011;3800;48.922;9.444;2023-03-03T06:11:47;33.00;;;22.70;;
7517;SDS011;3800;48.922;9.444;2023-03-03T06:14:16;31.00;;;22.57;;
7517;SDS011;3800;48.922;9.444;2023-03-03T06:16:44;30.33;;;21.90;;
7517;SDS011;3800;48.922;9.444;2023-03-03T06:19:12;33.80;;;23.03;;
7517;SDS011;3800;48.922;9.444;2023-03-03T06:21:40;35.10;;;25.73;;
7517;SDS011;3800;48.922;9.444;2023-03-03T06:24:08;57.67;;;38.70;;
7517;SDS011;3800;48.922;9.444;2023-03-03T06:26:35;52.63;;;39.13;;
7517;SDS011;3800;48.922;9.444;2023-03-03T06:29:03;48.57;;;37.43;;
7517;SDS011;3800;48.922;9.444;2023-03-03T06:31:32;45.30;;;34.70;;
7517;SDS011;3800;48.922;9.444;2023-03-03T06:34:00;47.70;;;33.43;;
7517;SDS011;3800;48.922;9.444;2023-03-03T06:36:27;44.57;;;31.07;;
7517;SDS011;3800;48.922;9.444;2023-03-03T06:38:57;39.73;;;29.83;;
7517;SDS011;3800;48.922;9.444;2023-03-03T06:41:24;46.17;;;29.13;;
7517;SDS011;3800;48.922;9.444;2023-03-03T06:43:53;39.50;;;27.87;;
7517;SDS011;3800;48.922;9.444;2023-03-03T06:46:22;39.60;;;27.97;;
7517;SDS011;3800;48.922;9.444;2023-03-03T06:48:50;42.90;;;28.10;;
7517;SDS011;3800;48.922;9.444;2023-03-03T06:51:23;34.53;;;25.23;;
7517;SDS011;3800;48.922;9.444;2023-03-03T06:53:51;39.33;;;26.50;;
7517;SDS011;3800;48.922;9.444;2023-03-03T06:56:18;44.53;;;29.83;;
7517;SDS011;3800;48.922;9.444;2023-03-03T06:58:47;43.23;;;29.17;;
7517;SDS011;3800;48.922;9.444;2023-03-03T07:01:15;43.33;;;29.00;;
7517;SDS011;3800;48.922;9.444;2023-03-03T07:03:44;40.33;;;27.77;;
7517;SDS011;3800;48.922;9.444;2023-03-03T07:06:26;40.57;;;27.17;;
7517;SDS011;3800;48.922;9.444;2023-03-03T07:08:55;38.43;;;26.30;;
7517;SDS011;3800;48.922;9.444;2023-03-03T07:11:23;42.07;;;26.70;;
7517;SDS011;3800;48.922;9.444;2023-03-03T07:13:53;39.03;;;27.70;;
7517;SDS011;3800;48.922;9.444;2023-03-03T07:16:25;39.60;;;26.27;;
7517;SDS011;3800;48.922;9.444;2023-03-03T07:18:52;40.80;;;25.20;;
7517;SDS011;3800;48.922;9.444;2023-03-03T07:21:21;37.33;;;25.53;;
7517;SDS011;3800;48.922;9.444;2023-03-03T07:23:49;36.30;;;24.80;;
7517;SDS011;3800;48.922;9.444;2023-03-03T07:26:17;38.20;;;26.40;;
7517;SDS011;3800;48.922;9.444;2023-03-03T07:28:49;41.27;;;26.60;;
7517;SDS011;3800;48.922;9.444;2023-03-03T07:31:16;42.07;;;25.83;;
7517;SDS011;3800;48.922;9.444;2023-03-03T07:33:48;38.83;;;24.97;;
7517;SDS011;3800;48.922;9.444;2023-03-03T07:36:21;43.63;;;27.23;;
7517;SDS011;3800;48.922;9.444;2023-03-03T07:39:03;43.90;;;26.27;;
7517;SDS011;3800;48.922;9.444;2023-03-03T07:41:30;35.63;;;25.87;;
7517;SDS011;3800;48.922;9.444;2023-03-03T07:43:59;39.53;;;27.83;;
7517;SDS011;3800;48.922;9.444;2023-03-03T07:46:46;38.00;;;27.27;;
7517;SDS011;3800;48.922;9.444;2023-03-03T07:49:20;38.37;;;26.57;;
7517;SDS011;3800;48.922;9.444;2023-03-03T07:51:53;41.20;;;26.53;;
7517;SDS011;3800;48.922;9.444;2023-03-03T07:54:38;38.17;;;25.93;;
7517;SDS011;3800;48.922;9.444;2023-03-03T07:57:26;42.37;;;27.27;;
7517;SDS011;3800;48.922;9.444;2023-03-03T07:59:59;38.07;;;27.60;;
7517;SDS011;3800;48.922;9.444;2023-03-03T08:02:32;48.30;;;29.07;;
7517;SDS011;3800;48.922;9.444;2023-03-03T08:07:49;44.13;;;28.67;;
7517;SDS011;3800;48.922;9.444;2023-03-03T08:13:08;41.93;;;27.83;;
7517;SDS011;3800;48.922;9.444;2023-03-03T08:15:45;42.60;;;27.67;;
7517;SDS011;3800;48.922;9.444;2023-03-03T08:18:18;41.90;;;28.50;;
7517;SDS011;3800;48.922;9.444;2023-03-03T08:20:46;46.60;;;27.87;;
7517;SDS011;3800;48.922;9.444;2023-03-03T08:23:13;43.57;;;28.90;;
7517;SDS011;3800;48.922;9.444;2023-03-03T08:25:41;44.30;;;28.57;;
7517;SDS011;3800;48.922;9.444;2023-03-03T08:28:08;50.17;;;29.50;;
7517;SDS011;3800;48.922;9.444;2023-03-03T08:30:36;45.03;;;28.93;;
7517;SDS011;3800;48.922;9.444;2023-03-03T08:33:04;44.67;;;28.93;;
7517;SDS011;3800;48.922;9.444;2023-03-03T08:35:32;45.53;;;29.57;;
7517;SDS011;3800;48.922;9.444;2023-03-03T08:37:59;44.30;;;28.60;;
7517;SDS011;3800;48.922;9.444;2023-03-03T08:40:27;45.40;;;30.00;;
7517;SDS011;3800;48.922;9.444;2023-03-03T08:42:54;44.00;;;29.47;;
7517;SDS011;3800;48.922;9.444;2023-03-03T08:45:24;45.70;;;30.67;;
7517;SDS011;3800;48.922;9.444;2023-03-03T08:47:51;45.87;;;29.67;;
7517;SDS011;3800;48.922;9.444;2023-03-03T08:50:18;44.43;;;29.83;;
7517;SDS011;3800;48.922;9.444;2023-03-03T08:52:46;46.13;;;30.87;;
7517;SDS011;3800;48.922;9.444;2023-03-03T08:55:15;42.47;;;28.80;;
7517;SDS011;3800;48.922;9.444;2023-03-03T08:57:43;45.13;;;30.57;;
7517;SDS011;3800;48.922;9.444;2023-03-03T09:00:13;48.00;;;30.73;;
7517;SDS011;3800;48.922;9.444;2023-03-03T09:02:41;43.70;;;30.27;;
7517;SDS011;3800;48.922;9.444;2023-03-03T09:05:08;44.93;;;31.10;;
7517;SDS011;3800;48.922;9.444;2023-03-03T09:07:37;42.30;;;29.17;;
7517;SDS011;3800;48.922;9.444;2023-03-03T09:10:05;44.93;;;30.47;;
7517;SDS011;3800;48.922;9.444;2023-03-03T09:12:34;45.10;;;30.43;;
7517;SDS011;3800;48.922;9.444;2023-03-03T09:15:07;46.43;;;31.27;;
7517;SDS011;3800;48.922;9.444;2023-03-03T09:17:44;44.53;;;30.10;;
7517;SDS011;3800;48.922;9.444;2023-03-03T09:20:21;45.47;;;30.03;;
7517;SDS011;3800;48.922;9.444;2023-03-03T09:22:50;43.27;;;30.23;;
7517;SDS011;3800;48.922;9.444;2023-03-03T09:25:34;42.47;;;29.50;;
7517;SDS011;3800;48.922;9.444;2023-03-03T09:28:01;43.97;;;29.57;;
7517;SDS011;3800;48.922;9.444;2023-03-03T09:30:35;41.00;;;29.50;;
7517;SDS011;3800;48.922;9.444;2023-03-03T09:33:15;41.37;;;28.80;;
7517;SDS011;3800;48.922;9.444;2023-03-03T09:35:34;41.10;;;29.03;;
7517;SDS011;3800;48.922;9.444;2023-03-03T09:43:12;43.20;;;27.13;;
7517;SDS011;3800;48.922;9.444;2023-03-03T09:45:43;39.77;;;28.60;;
7517;SDS011;3800;48.922;9.444;2023-03-03T09:48:28;40.87;;;28.47;;
7517;SDS011;3800;48.922;9.444;2023-03-03T09:51:09;38.53;;;27.77;;
7517;SDS011;3800;48.922;9.444;2023-03-03T09:53:41;42.23;;;28.90;;
7517;SDS011;3800;48.922;9.444;2023-03-03T09:56:23;40.80;;;28.33;;
7517;SDS011;3800;48.922;9.444;2023-03-03T09:58:57;42.10;;;27.47;;
7517;SDS011;3800;48.922;9.444;2023-03-03T10:01:47;39.53;;;26.27;;
7517;SDS011;3800;48.922;9.444;2023-03-03T10:10:05;36.40;;;25.67;;
7517;SDS011;3800;48.922;9.444;2023-03-03T10:12:36;36.73;;;26.43;;
7517;SDS011;3800;48.922;9.444;2023-03-03T10:15:11;35.20;;;25.73;;
7517;SDS011;3800;48.922;9.444;2023-03-03T10:17:47;35.67;;;26.53;;
7517;SDS011;3800;48.922;9.444;2023-03-03T10:20:19;34.03;;;24.83;;
7517;SDS011;3800;48.922;9.444;2023-03-03T10:22:48;34.37;;;24.43;;
7517;SDS011;3800;48.922;9.444;2023-03-03T10:25:30;36.10;;;24.43;;
7517;SDS011;3800;48.922;9.444;2023-03-03T10:28:03;34.73;;;24.70;;
7517;SDS011;3800;48.922;9.444;2023-03-03T10:30:39;33.33;;;24.30;;
7517;SDS011;3800;48.922;9.444;2023-03-03T10:33:19;32.07;;;23.73;;
7517;SDS011;3800;48.922;9.444;2023-03-03T10:41:15;32.97;;;23.67;;
7517;SDS011;3800;48.922;9.444;2023-03-03T10:46:42;30.13;;;23.00;;
7517;SDS011;3800;48.922;9.444;2023-03-03T10:49:15;32.97;;;23.30;;
7517;SDS011;3800;48.922;9.444;2023-03-03T10:51:52;34.10;;;23.47;;
7517;SDS011;3800;48.922;9.444;2023-03-03T10:54:36;33.50;;;24.17;;
7517;SDS011;3800;48.922;9.444;2023-03-03T10:57:12;29.77;;;22.83;;
7517;SDS011;3800;48.922;9.444;2023-03-03T10:59:55;35.00;;;23.07;;
7517;SDS011;3800;48.922;9.444;2023-03-03T11:02:26;32.07;;;22.53;;
7517;SDS011;3800;48.922;9.444;2023-03-03T11:04:58;31.77;;;22.87;;
7517;SDS011;3800;48.922;9.444;2023-03-03T11:07:39;32.87;;;24.03;;
7517;SDS011;3800;48.922;9.444;2023-03-03T11:13:01;33.47;;;24.80;;
7517;SDS011;3800;48.922;9.444;2023-03-03T11:15:33;33.30;;;24.60;;
7517;SDS011;3800;48.922;9.444;2023-03-03T11:18:21;33.60;;;23.73;;
7517;SDS011;3800;48.922;9.444;2023-03-03T11:21:07;37.13;;;24.97;;
7517;SDS011;3800;48.922;9.444;2023-03-03T11:23:42;33.17;;;22.53;;
7517;SDS011;3800;48.922;9.444;2023-03-03T11:26:26;30.33;;;23.73;;
7517;SDS011;3800;48.922;9.444;2023-03-03T11:28:56;31.77;;;23.63;;
7517;SDS011;3800;48.922;9.444;2023-03-03T11:31:28;30.33;;;22.23;;
7517;SDS011;3800;48.922;9.444;2023-03-03T11:34:16;30.93;;;21.93;;
7517;SDS011;3800;48.922;9.444;2023-03-03T11:36:44;29.90;;;22.43;;
7517;SDS011;3800;48.922;9.444;2023-03-03T11:39:13;29.83;;;22.17;;
7517;SDS011;3800;48.922;9.444;2023-03-03T11:41:44;31.57;;;21.67;;
7517;SDS011;3800;48.922;9.444;2023-03-03T11:44:16;31.43;;;22.00;;
7517;SDS011;3800;48.922;9.444;2023-03-03T11:46:57;30.40;;;21.10;;
7517;SDS011;3800;48.922;9.444;2023-03-03T11:49:27;32.03;;;23.03;;
7517;SDS011;3800;48.922;9.444;2023-03-03T11:52:11;32.33;;;21.60;;
7517;SDS011;3800;48.922;9.444;2023-03-03T11:54:44;29.77;;;23.57;;
7517;SDS011;3800;48.922;9.444;2023-03-03T11:57:16;30.50;;;22.47;;
7517;SDS011;3800;48.922;9.444;2023-03-03T11:59:49;31.53;;;22.33;;
7517;SDS011;3800;48.922;9.444;2023-03-03T12:02:22;27.63;;;22.27;;
7517;SDS011;3800;48.922;9.444;2023-03-03T12:04:50;28.90;;;22.00;;
7517;SDS011;3800;48.922;9.444;2023-03-03T12:07:26;36.57;;;22.77;;
7517;SDS011;3800;48.922;9.444;2023-03-03T12:09:56;31.57;;;22.37;;
7517;SDS011;3800;48.922;9.444;2023-03-03T12:12:32;30.97;;;22.73;;
7517;SDS011;3800;48.922;9.444;2023-03-03T12:15:04;29.53;;;22.07;;
7517;SDS011;3800;48.922;9.444;2023-03-03T12:17:42;34.47;;;22.53;;
7517;SDS011;3800;48.922;9.444;2023-03-03T12:20:58;27.73;;;21.70;;
7517;SDS011;3800;48.922;9.444;2023-03-03T12:26:01;31.77;;;22.30;;
7517;SDS011;3800;48.922;9.444;2023-03-03T12:28:36;31.53;;;22.40;;
7517;SDS011;3800;48.922;9.444;2023-03-03T12:31:24;28.70;;;20.57;;
7517;SDS011;3800;48.922;9.444;2023-03-03T12:34:12;26.70;;;20.73;;
7517;SDS011;3800;48.922;9.444;2023-03-03T12:36:49;26.17;;;20.80;;
7517;SDS011;3800;48.922;9.444;2023-03-03T12:39:27;29.00;;;21.43;;
7517;SDS011;3800;48.922;9.444;2023-03-03T12:41:59;28.60;;;21.80;;
7517;SDS011;3800;48.922;9.444;2023-03-03T12:44:34;26.13;;;20.10;;
7517;SDS011;3800;48.922;9.444;2023-03-03T12:47:08;29.13;;;21.93;;
7517;SDS011;3800;48.922;9.444;2023-03-03T12:52:37;28.23;;;21.20;;
7517;SDS011;3800;48.922;9.444;2023-03-03T12:55:07;28.23;;;20.37;;
7517;SDS011;3800;48.922;9.444;2023-03-03T12:57:39;28.43;;;21.03;;
7517;SDS011;3800;48.922;9.444;2023-03-03T13:00:23;28.47;;;21.10;;
7517;SDS011;3800;48.922;9.444;2023-03-03T13:02:58;29.20;;;21.60;;
7517;SDS011;3800;48.922;9.444;2023-03-03T13:05:29;28.23;;;20.97;;
7517;SDS011;3800;48.922;9.444;2023-03-03T13:08:16;27.00;;;20.63;;
7517;SDS011;3800;48.922;9.444;2023-03-03T13:10:47;26.93;;;20.70;;
7517;SDS011;3800;48.922;9.444;2023-03-03T13:13:37;29.77;;;21.50;;
7517;SDS011;3800;48.922;9.444;2023-03-03T13:16:13;27.43;;;20.90;;
7517;SDS011;3800;48.922;9.444;2023-03-03T13:18:59;29.20;;;20.77;;
7517;SDS011;3800;48.922;9.444;2023-03-03T13:21:29;28.67;;;21.07;;
7517;SDS011;3800;48.922;9.444;2023-03-03T13:24:12;25.03;;;19.67;;
7517;SDS011;3800;48.922;9.444;2023-03-03T13:29:25;25.70;;;19.50;;
7517;SDS011;3800;48.922;9.444;2023-03-03T13:31:54;25.97;;;19.90;;
7517;SDS011;3800;48.922;9.444;2023-03-03T13:34:36;26.43;;;20.43;;
7517;SDS011;3800;48.922;9.444;2023-03-03T13:36:58;27.20;;;20.10;;
7517;SDS011;3800;48.922;9.444;2023-03-03T13:39:25;24.67;;;19.47;;
7517;SDS011;3800;48.922;9.444;2023-03-03T13:42:26;27.47;;;20.10;;
7517;SDS011;3800;48.922;9.444;2023-03-03T13:44:41;28.50;;;21.63;;
7517;SDS011;3800;48.922;9.444;2023-03-03T13:47:18;27.10;;;19.83;;
7517;SDS011;3800;48.922;9.444;2023-03-03T13:49:54;28.33;;;19.60;;
7517;SDS011;3800;48.922;9.444;2023-03-03T13:52:38;24.67;;;19.73;;
7517;SDS011;3800;48.922;9.444;2023-03-03T13:55:11;24.13;;;19.87;;
7517;SDS011;3800;48.922;9.444;2023-03-03T13:57:42;25.83;;;19.50;;
7517;SDS011;3800;48.922;9.444;2023-03-03T14:00:26;26.20;;;20.87;;
7517;SDS011;3800;48.922;9.444;2023-03-03T14:02:57;27.00;;;20.33;;
7517;SDS011;3800;48.922;9.444;2023-03-03T14:05:37;26.73;;;20.80;;
7517;SDS011;3800;48.922;9.444;2023-03-03T14:08:16;30.17;;;21.20;;
7517;SDS011;3800;48.922;9.444;2023-03-03T14:10:47;28.50;;;20.40;;
7517;SDS011;3800;48.922;9.444;2023-03-03T14:13:18;24.43;;;20.00;;
7517;SDS011;3800;48.922;9.444;2023-03-03T14:15:51;27.93;;;20.67;;
7517;SDS011;3800;48.922;9.444;2023-03-03T14:18:38;28.43;;;19.77;;
7517;SDS011;3800;48.922;9.444;2023-03-03T14:21:10;25.43;;;20.97;;
7517;SDS011;3800;48.922;9.444;2023-03-03T14:23:45;26.97;;;19.67;;
7517;SDS011;3800;48.922;9.444;2023-03-03T14:26:08;29.17;;;19.77;;
7517;SDS011;3800;48.922;9.444;2023-03-03T14:28:39;27.33;;;20.57;;
7517;SDS011;3800;48.922;9.444;2023-03-03T14:31:14;26.50;;;20.23;;
7517;SDS011;3800;48.922;9.444;2023-03-03T14:33:45;27.60;;;20.33;;
7517;SDS011;3800;48.922;9.444;2023-03-03T14:36:12;24.83;;;19.83;;
7517;SDS011;3800;48.922;9.444;2023-03-03T14:38:42;25.80;;;20.37;;
7517;SDS011;3800;48.922;9.444;2023-03-03T14:46:42;25.93;;;20.10;;
7517;SDS011;3800;48.922;9.444;2023-03-03T14:49:14;26.53;;;20.43;;
7517;SDS011;3800;48.922;9.444;2023-03-03T14:51:44;28.07;;;19.97;;
7517;SDS011;3800;48.922;9.444;2023-03-03T14:54:15;30.17;;;19.80;;
7517;SDS011;3800;48.922;9.444;2023-03-03T14:59:22;26.87;;;19.77;;
7517;SDS011;3800;48.922;9.444;2023-03-03T15:01:56;27.07;;;19.60;;
7517;SDS011;3800;48.922;9.444;2023-03-03T15:04:32;30.93;;;21.47;;
7517;SDS011;3800;48.922;9.444;2023-03-03T15:07:14;28.07;;;19.77;;
7517;SDS011;3800;48.922;9.444;2023-03-03T15:09:33;26.93;;;19.80;;
7517;SDS011;3800;48.922;9.444;2023-03-03T15:12:02;27.63;;;20.73;;
7517;SDS011;3800;48.922;9.444;2023-03-03T15:14:29;25.50;;;20.23;;
7517;SDS011;3800;48.922;9.444;2023-03-03T15:19:42;26.13;;;19.67;;
7517;SDS011;3800;48.922;9.444;2023-03-03T15:22:12;28.03;;;20.57;;
7517;SDS011;3800;48.922;9.444;2023-03-03T15:27:24;29.73;;;21.20;;
7517;SDS011;3800;48.922;9.444;2023-03-03T15:32:53;26.57;;;19.40;;
7517;SDS011;3800;48.922;9.444;2023-03-03T15:35:24;26.37;;;20.80;;
7517;SDS011;3800;48.922;9.444;2023-03-03T15:37:58;27.23;;;20.33;;
7517;SDS011;3800;48.922;9.444;2023-03-03T15:43:12;27.17;;;21.20;;
7517;SDS011;3800;48.922;9.444;2023-03-03T15:45:57;26.57;;;20.63;;
7517;SDS011;3800;48.922;9.444;2023-03-03T15:48:33;26.77;;;20.93;;
7517;SDS011;3800;48.922;9.444;2023-03-03T15:51:02;25.13;;;19.67;;
7517;SDS011;3800;48.922;9.444;2023-03-03T15:56:27;27.63;;;21.37;;
7517;SDS011;3800;48.922;9.444;2023-03-03T15:59:20;27.13;;;20.43;;
7517;SDS011;3800;48.922;9.444;2023-03-03T16:01:59;25.83;;;19.57;;
7517;SDS011;3800;48.922;9.444;2023-03-03T16:04:28;28.27;;;19.60;;
7517;SDS011;3800;48.922;9.444;2023-03-03T16:07:03;27.33;;;20.57;;
7517;SDS011;3800;48.922;9.444;2023-03-03T16:09:37;28.80;;;20.33;;
7517;SDS011;3800;48.922;9.444;2023-03-03T16:12:06;26.77;;;20.67;;